Time;durP1;ratioP1;P1;durP2;ratioP2;P2;SDS_P1;SDS_P2;PMS_P1;PMS_P2;Temp;Humidity;BMP_temperature;BMP_pressure;BME280_temperature;BME280_humidity;BME280_pressure;Samples;Min_cycle;Max_cycle;Signal;HPM_P1;HPM_P2
2022/06/20 00:00:40;;;;;;;2.90;1.40;;;;;;;17.38;61.52;98632.51;104954;1271;77151;-24
2022/06/20 00:03:31;;;;;;;2.20;1.30;;;;;;;17.30;61.79;98636.71;104608;1271;74022;-24
2022/06/20 00:05:58;;;;;;;1.40;1.00;;;;;;;17.21;62.17;98636.91;104694;1273;62908;-24
2022/06/20 00:08:26;;;;;;;3.30;1.20;;;;;;;17.15;62.22;98632.59;104859;1273;61071;-24
2022/06/20 00:10:53;;;;;;;3.10;1.40;;;;;;;17.07;62.50;98634.46;105036;1273;76627;-24
2022/06/20 00:13:29;;;;;;;3.60;1.30;;;;;;;17.05;62.69;98632.27;104994;1273;77038;-24
2022/06/20 00:15:56;;;;;;;1.40;0.90;;;;;;;17.05;62.93;98625.99;104768;1273;74655;-24
2022/06/20 00:18:24;;;;;;;3.00;1.30;;;;;;;17.59;61.56;98624.13;104700;1273;62063;-24
2022/06/20 00:20:51;;;;;;;3.00;1.30;;;;;;;18.13;59.87;98621.49;105032;1273;63134;-25
2022/06/20 00:23:18;;;;;;;4.10;1.40;;;;;;;18.22;59.30;98619.34;104895;1273;75484;-25
2022/06/20 00:25:45;;;;;;;3.20;1.60;;;;;;;18.15;59.22;98620.34;105023;1273;76812;-25
2022/06/20 00:28:13;;;;;;;3.70;1.40;;;;;;;17.97;59.72;98616.90;105068;1273;74412;-25
2022/06/20 00:30:40;;;;;;;3.20;1.50;;;;;;;17.77;60.26;98615.38;104834;1274;63008;-24
2022/06/20 00:33:09;;;;;;;2.70;1.70;;;;;;;17.54;60.80;98610.70;104985;1273;61835;-25
2022/06/20 00:35:37;;;;;;;3.10;1.10;;;;;;;17.34;61.13;98608.56;104685;1273;75543;-25
2022/06/20 00:38:05;;;;;;;5.10;1.40;;;;;;;17.18;61.72;98607.83;104743;1274;75960;-25
2022/06/20 00:40:41;;;;;;;5.00;1.30;;;;;;;17.05;62.22;98607.15;104683;1274;75254;-24
2022/06/20 00:43:11;;;;;;;1.90;1.10;;;;;;;17.03;62.21;98602.69;104597;1273;63107;-24
2022/06/20 00:45:40;;;;;;;3.30;1.60;;;;;;;17.01;62.00;98599.80;104746;1273;63329;-25
2022/06/20 00:48:20;;;;;;;4.40;1.40;;;;;;;16.93;62.31;98596.45;104812;1274;75077;-24
2022/06/20 00:50:48;;;;;;;1.80;1.30;;;;;;;16.80;62.86;98592.42;104542;1273;74698;-25
2022/06/20 00:53:23;;;;;;;4.20;1.40;;;;;;;16.67;63.30;98590.44;104612;1273;74785;-24
2022/06/20 00:56:03;;;;;;;1.60;1.30;;;;;;;16.57;63.64;98589.13;104603;1276;61972;-24
2022/06/20 00:58:42;;;;;;;2.00;0.80;;;;;;;16.51;63.79;98586.63;104741;1274;63100;-26
2022/06/20 01:01:13;;;;;;;2.80;1.00;;;;;;;16.98;63.09;98581.54;104480;1274;76579;-26
2022/06/20 01:03:45;;;;;;;2.10;1.20;;;;;;;17.24;61.66;98583.23;104655;1274;74736;-24
2022/06/20 01:06:19;;;;;;;2.10;1.20;;;;;;;17.26;61.53;98580.74;104774;1271;73065;-24
2022/06/20 01:08:52;;;;;;;2.70;1.30;;;;;;;17.17;61.15;98586.08;104852;1273;61931;-24
2022/06/20 01:11:26;;;;;;;3.30;1.10;;;;;;;17.07;61.57;98584.71;104990;1272;61804;-24
2022/06/20 01:13:53;;;;;;;5.30;1.40;;;;;;;16.90;62.03;98583.60;105008;1271;75513;-24
2022/06/20 01:16:28;;;;;;;2.30;1.30;;;;;;;16.75;62.34;98583.77;104927;1271;76170;-24
2022/06/20 01:18:56;;;;;;;6.30;1.50;;;;;;;16.55;63.13;98583.72;104626;1271;75570;-25
2022/06/20 01:21:34;;;;;;;5.00;1.30;;;;;;;16.42;63.68;98586.76;104725;1275;61901;-24
2022/06/20 01:24:32;;;;;;;4.70;1.50;;;;;;;16.31;63.97;98587.16;104757;1271;61852;-24
2022/06/20 01:27:14;;;;;;;1.80;1.20;;;;;;;16.26;64.04;98588.77;104971;1271;76556;-24
2022/06/20 01:29:42;;;;;;;2.50;1.60;;;;;;;16.22;63.94;98586.39;104784;1271;75620;-24
2022/06/20 01:32:09;;;;;;;1.10;0.80;;;;;;;16.16;63.91;98589.47;104879;1271;75572;-24
2022/06/20 01:34:36;;;;;;;1.40;1.00;;;;;;;16.62;64.10;98595.08;104725;1273;62831;-24
2022/06/20 01:37:25;;;;;;;4.10;1.30;;;;;;;17.15;62.66;98598.35;104761;1271;62448;-24
2022/06/20 01:39:56;;;;;;;1.70;1.20;;;;;;;17.19;62.03;98602.39;104693;1271;75967;-24
2022/06/20 01:42:23;;;;;;;4.80;1.50;;;;;;;16.96;62.26;98604.64;104672;1271;77317;-24
2022/06/20 01:44:59;;;;;;;4.40;1.30;;;;;;;16.75;62.70;98604.23;104660;1274;74491;-24
2022/06/20 01:47:26;;;;;;;1.50;1.20;;;;;;;16.54;63.04;98602.25;104649;1271;63130;-24
2022/06/20 01:49:56;;;;;;;2.20;1.10;;;;;;;16.37;63.33;98605.09;104781;1271;61035;-24
2022/06/20 01:52:37;;;;;;;2.30;1.20;;;;;;;16.20;63.63;98607.15;104696;1271;75560;-24
2022/06/20 01:55:19;;;;;;;1.30;1.00;;;;;;;16.06;63.54;98605.02;104987;1272;77213;-25
2022/06/20 01:57:47;;;;;;;3.50;1.20;;;;;;;15.93;63.94;98605.86;104848;1271;75761;-25
2022/06/20 02:00:17;;;;;;;6.40;1.60;;;;;;;15.84;64.12;98604.08;104830;1271;61827;-25
2022/06/20 02:02:50;;;;;;;3.70;1.40;;;;;;;15.76;64.29;98610.01;105104;1271;61949;-25
2022/06/20 02:05:21;;;;;;;7.20;1.70;;;;;;;15.69;64.64;98611.18;104878;1272;76377;-25
2022/06/20 02:07:48;;;;;;;2.30;1.00;;;;;;;15.64;64.64;98613.39;104871;1271;77472;-25
2022/06/20 02:10:37;;;;;;;1.50;1.10;;;;;;;16.21;64.55;98613.29;104891;1271;73874;-25
2022/06/20 02:13:04;;;;;;;4.20;1.20;;;;;;;16.83;62.44;98608.91;105003;1272;61444;-26
2022/06/20 02:15:32;;;;;;;3.10;1.40;;;;;;;16.93;62.12;98607.13;104840;1273;61877;-25
2022/06/20 02:18:01;;;;;;;5.70;1.60;;;;;;;16.81;62.04;98605.70;104708;1273;74545;-25
2022/06/20 02:20:30;;;;;;;2.70;1.50;;;;;;;16.64;62.72;98603.42;104697;1273;76983;-25
2022/06/20 02:22:58;;;;;;;3.60;1.50;;;;;;;16.48;63.11;98604.66;104834;1274;75414;-25
2022/06/20 02:25:26;;;;;;;1.70;1.30;;;;;;;16.41;62.89;98603.35;104603;1271;61935;-25
2022/06/20 02:28:06;;;;;;;4.20;1.70;;;;;;;16.31;62.88;98602.27;104703;1271;61668;-25
2022/06/20 02:30:34;;;;;;;4.50;2.00;;;;;;;16.24;63.02;98603.04;105009;1271;75870;-25
2022/06/20 02:33:07;;;;;;;3.00;1.60;;;;;;;16.18;62.91;98607.88;104650;1274;76842;-25
2022/06/20 02:35:35;;;;;;;7.60;1.80;;;;;;;16.10;63.46;98608.78;104736;1271;74354;-25
2022/06/20 02:38:02;;;;;;;3.20;1.70;;;;;;;16.01;63.72;98606.81;104632;1273;61428;-25
2022/06/20 02:40:30;;;;;;;2.70;1.10;;;;;;;15.94;64.43;98605.30;104678;1271;62245;-25
2022/06/20 02:43:03;;;;;;;1.60;0.90;;;;;;;16.42;64.28;98607.48;104947;1271;75558;-25
2022/06/20 02:45:31;;;;;;;2.50;1.10;;;;;;;17.03;62.59;98606.58;104803;1271;76841;-25
2022/06/20 02:48:04;;;;;;;2.60;2.00;;;;;;;17.18;61.76;98603.02;104649;1271;74410;-25
2022/06/20 02:50:41;;;;;;;3.40;1.40;;;;;;;17.15;61.59;98602.00;104597;1271;62009;-25
2022/06/20 02:53:21;;;;;;;2.00;1.10;;;;;;;17.05;61.70;98597.71;104620;1271;63019;-23
2022/06/20 02:55:49;;;;;;;2.50;1.20;;;;;;;16.98;61.83;98595.61;104625;1273;76426;-24
2022/06/20 02:58:25;;;;;;;2.70;1.40;;;;;;;16.93;62.09;98591.91;104627;1273;77389;-24
2022/06/20 03:00:59;;;;;;;1.80;1.10;;;;;;;16.89;62.23;98587.60;104727;1271;74189;-24
2022/06/20 03:03:29;;;;;;;9.30;1.50;;;;;;;16.88;62.43;98581.83;104593;1271;61813;-24
2022/06/20 03:05:57;;;;;;;3.40;1.50;;;;;;;16.86;62.70;98578.48;104391;1274;62109;-24
2022/06/20 03:08:24;;;;;;;1.60;1.20;;;;;;;16.78;62.54;98575.88;104859;1271;75492;-24
2022/06/20 03:10:52;;;;;;;3.20;1.50;;;;;;;16.72;62.78;98576.44;104981;1271;76419;-24
2022/06/20 03:13:20;;;;;;;2.00;1.40;;;;;;;16.70;62.94;98578.88;104950;1272;75570;-24
2022/06/20 03:15:47;;;;;;;2.00;0.80;;;;;;;16.69;63.11;98579.94;104733;1274;62144;-24
2022/06/20 03:18:16;;;;;;;2.40;1.00;;;;;;;17.27;61.51;98566.42;105073;1271;62731;-24
2022/06/20 03:20:44;;;;;;;2.10;1.10;;;;;;;17.93;59.72;98562.55;104903;1271;76579;-24
2022/06/20 03:23:28;;;;;;;3.30;1.30;;;;;;;18.11;58.46;98560.60;104850;1271;77048;-24
2022/06/20 03:25:56;;;;;;;3.50;1.20;;;;;;;18.10;58.80;98562.94;105037;1271;75562;-24
2022/06/20 03:28:24;;;;;;;10.90;1.10;;;;;;;18.11;58.51;98561.80;104831;1271;62037;-24
2022/06/20 03:31:06;;;;;;;4.80;1.40;;;;;;;18.07;58.55;98558.45;104949;1274;63054;-24
2022/06/20 03:33:33;;;;;;;1.60;1.30;;;;;;;18.00;58.80;98560.31;104830;1273;76769;-24
2022/06/20 03:36:24;;;;;;;2.70;1.10;;;;;;;18.00;59.07;98557.55;104748;1271;76982;-24
2022/06/20 03:38:52;;;;;;;2.50;1.00;;;;;;;18.02;59.03;98548.14;104629;1271;75845;-24
2022/06/20 03:41:22;;;;;;;5.80;2.10;;;;;;;18.00;59.06;98541.74;104817;1271;62133;-24
2022/06/20 03:43:57;;;;;;;1.50;1.20;;;;;;;17.90;59.28;98540.06;104630;1271;63210;-24
2022/06/20 03:46:29;;;;;;;2.60;1.00;;;;;;;17.91;59.37;98538.05;104608;1271;76866;-24
2022/06/20 03:49:16;;;;;;;1.30;1.00;;;;;;;18.02;59.14;98528.84;104609;1273;76783;-25
2022/06/20 03:51:51;;;;;;;3.30;1.20;;;;;;;18.05;59.10;98520.29;104488;1271;74139;-24
2022/06/20 03:54:27;;;;;;;3.00;1.50;;;;;;;17.89;59.33;98528.56;104990;1272;63223;-24
2022/06/20 03:57:01;;;;;;;2.20;1.40;;;;;;;18.02;59.42;98530.59;104950;1271;62036;-24
2022/06/20 03:59:42;;;;;;;;;;;;;;;18.31;59.20;98538.27;104964;1271;74893;-24
2022/06/20 04:02:20;;;;;;;4.30;1.10;;;;;;;18.52;58.82;98535.39;104517;1273;77227;-24
2022/06/20 04:05:15;;;;;;;2.20;1.40;;;;;;;18.51;58.26;98525.42;104622;1272;75100;-24
2022/06/20 04:07:49;;;;;;;1.70;1.10;;;;;;;18.55;58.10;98523.75;104933;1271;63089;-24
2022/06/20 04:13:33;;;;;;;2.20;1.20;;;;;;;18.71;58.23;98504.08;104780;1273;74715;-24
2022/06/20 04:16:04;;;;;;;4.60;1.60;;;;;;;18.82;57.50;98497.08;104986;1271;76845;-24
2022/06/20 04:18:31;;;;;;;2.80;1.10;;;;;;;18.82;57.20;98510.53;104844;1274;75552;-24
2022/06/20 04:21:01;;;;;;;3.90;1.30;;;;;;;19.13;57.23;98518.65;105070;1272;62129;-24
2022/06/20 04:23:49;;;;;;;3.00;1.20;;;;;;;19.42;56.83;98518.13;104887;1272;61964;-24
2022/06/20 04:26:29;;;;;;;2.10;1.20;;;;;;;19.42;55.96;98513.05;104920;1271;76674;-24
2022/06/20 04:28:59;;;;;;;3.20;1.30;;;;;;;19.41;55.53;98510.77;104666;1274;75915;-24
2022/06/20 04:31:40;;;;;;;2.00;1.30;;;;;;;19.43;55.16;98502.69;104772;1273;74140;-24
2022/06/20 04:34:41;;;;;;;4.80;1.20;;;;;;;19.55;55.42;98491.89;104911;1272;61801;-24
2022/06/20 04:37:27;;;;;;;4.60;3.00;;;;;;;19.76;54.36;98488.88;104749;1273;62960;-24
2022/06/20 04:40:06;;;;;;;3.20;2.40;;;;;;;19.79;54.08;98484.51;104856;1271;76750;-24
2022/06/20 04:42:41;;;;;;;1.70;1.30;;;;;;;19.97;53.44;98473.48;104947;1271;77012;-24
2022/06/20 04:45:25;;;;;;;1.30;1.10;;;;;;;20.05;53.17;98465.98;104720;1271;74137;-24
2022/06/20 04:47:59;;;;;;;2.80;1.60;;;;;;;20.25;52.11;98461.20;104611;1271;62327;-24
2022/06/20 04:50:28;;;;;;;2.10;1.90;;;;;;;20.46;51.25;98455.46;104646;1273;62659;-25
2022/06/20 04:53:05;;;;;;;3.60;1.50;;;;;;;20.56;51.03;98448.51;104660;1273;76597;-24
2022/06/20 04:55:33;;;;;;;2.00;0.90;;;;;;;20.54;51.59;98447.27;104736;1272;76841;-24
2022/06/20 04:58:03;;;;;;;1.00;0.80;;;;;;;20.80;49.92;98438.65;104735;1273;75333;-24
2022/06/20 05:00:41;;;;;;;7.60;1.20;;;;;;;20.87;50.16;98436.88;104669;1273;61158;-24
2022/06/20 05:03:12;;;;;;;3.70;1.00;;;;;;;20.93;49.44;98431.41;104851;1271;61777;-24
2022/06/20 05:05:41;;;;;;;1.90;0.80;;;;;;;21.07;49.04;98432.23;104708;1273;76475;-24
2022/06/20 05:08:11;;;;;;;1.00;0.80;;;;;;;21.18;49.45;98432.23;104652;1273;77154;-24
2022/06/20 05:10:46;;;;;;;1.60;1.10;;;;;;;21.24;49.01;98429.60;104439;1273;75388;-24
2022/06/20 05:13:17;;;;;;;7.80;2.00;;;;;;;21.41;49.66;98433.24;104730;1271;63050;-24
2022/06/20 05:15:48;;;;;;;1.10;1.00;;;;;;;21.41;49.29;98426.40;104743;1271;62017;-24
2022/06/20 05:18:22;;;;;;;3.80;1.10;;;;;;;21.57;49.09;98427.48;104912;1271;76560;-25
2022/06/20 05:20:49;;;;;;;;;;;;;;;21.63;48.39;98427.00;104994;1273;77140;-25
2022/06/20 05:23:23;;;;;;;1.90;0.70;;;;;;;21.55;48.32;98431.96;104927;1271;74168;-24
2022/06/20 05:25:50;;;;;;;3.40;2.20;;;;;;;21.72;48.69;98434.63;104603;1273;61807;-24
2022/06/20 05:28:19;;;;;;;2.50;1.40;;;;;;;21.79;48.32;98435.89;104761;1273;63080;-24
2022/06/20 05:30:46;;;;;;;2.60;1.10;;;;;;;21.81;47.70;98432.20;104843;1271;74789;-24
2022/06/20 05:33:14;;;;;;;2.40;1.00;;;;;;;21.86;48.08;98430.25;105079;1271;77074;-25
2022/06/20 05:35:57;;;;;;;1.70;1.10;;;;;;;22.08;48.41;98425.45;105074;1271;74237;-24
2022/06/20 05:38:32;;;;;;;2.50;1.30;;;;;;;22.35;47.23;98432.19;105097;1273;61652;-24
2022/06/20 05:41:00;;;;;;;1.30;0.90;;;;;;;22.38;47.19;98431.15;104850;1273;63163;-24
2022/06/20 05:43:29;;;;;;;1.80;1.00;;;;;;;22.40;46.82;98426.20;104993;1272;73873;-24
2022/06/20 05:46:03;;;;;;;1.20;1.00;;;;;;;22.60;46.42;98421.02;105028;1271;76454;-25
2022/06/20 05:48:36;;;;;;;3.10;1.10;;;;;;;22.62;46.65;98423.23;104885;1271;74441;-24
2022/06/20 05:51:06;;;;;;;2.00;1.40;;;;;;;22.82;46.70;98422.64;104718;1271;62143;-23
2022/06/20 05:53:50;;;;;;;2.20;1.80;;;;;;;22.95;45.87;98420.42;104834;1273;61833;-23
2022/06/20 05:56:31;;;;;;;3.40;1.50;;;;;;;22.98;46.14;98427.59;104999;1272;76729;-23
2022/06/20 05:58:59;;;;;;;3.40;1.20;;;;;;;23.24;46.66;98429.78;104886;1271;75975;-23
2022/06/20 06:01:34;;;;;;;37.80;2.50;;;;;;;23.42;45.82;98422.26;104739;1273;74326;-23
2022/06/20 06:04:23;;;;;;;3.30;1.70;;;;;;;23.61;44.12;98417.54;104693;1272;61145;-23
2022/06/20 06:06:55;;;;;;;3.80;2.50;;;;;;;23.50;44.27;98408.91;105080;1271;61886;-23
2022/06/20 06:09:51;;;;;;;5.60;2.70;;;;;;;23.59;44.93;98410.38;104624;1273;76171;-23
2022/06/20 06:12:27;;;;;;;3.10;1.60;;;;;;;23.86;44.04;98422.02;104711;1271;76716;-23
2022/06/20 06:15:13;;;;;;;6.60;1.80;;;;;;;23.97;43.96;98423.66;104736;1271;74327;-23
2022/06/20 06:17:51;;;;;;;1.60;1.50;;;;;;;23.76;43.43;98424.05;104420;1272;319181;-23
2022/06/20 06:20:21;;;;;;;3.40;2.20;;;;;;;23.79;43.10;98415.23;104782;1271;61933;-24
2022/06/20 06:22:51;;;;;;;5.10;2.70;;;;;;;23.73;43.66;98426.84;104995;1271;76590;-24
2022/06/20 06:25:27;;;;;;;2.00;1.70;;;;;;;23.90;42.65;98432.00;104819;1273;77079;-24
2022/06/20 06:27:57;;;;;;;5.50;2.10;;;;;;;24.08;42.91;98428.74;104787;1271;75538;-24
2022/06/20 06:30:46;;;;;;;5.30;4.10;;;;;;;24.20;42.59;98427.98;104669;1271;62800;-24
2022/06/20 06:33:35;;;;;;;4.20;3.10;;;;;;;24.11;42.23;98416.59;104539;1273;63025;-24
2022/06/20 06:36:23;;;;;;;4.70;1.90;;;;;;;24.14;42.85;98420.88;105059;1273;77132;-24
2022/06/20 06:39:09;;;;;;;3.10;1.50;;;;;;;24.14;42.44;98417.65;105099;1271;75744;-23
2022/06/20 06:41:39;;;;;;;3.00;1.60;;;;;;;24.35;43.05;98415.02;104950;1271;74331;-23
2022/06/20 06:44:17;;;;;;;3.00;1.30;;;;;;;24.49;42.71;98406.17;104854;1271;63109;-24
2022/06/20 06:46:46;;;;;;;2.70;1.90;;;;;;;24.57;42.72;98395.55;104782;1272;61496;-23
2022/06/20 06:49:34;;;;;;;4.90;2.00;;;;;;;24.73;43.21;98396.67;104624;1273;77195;-23
2022/06/20 06:52:27;;;;;;;4.50;2.60;;;;;;;24.82;42.03;98401.47;104871;1271;77189;-23
2022/06/20 06:55:04;;;;;;;2.60;1.10;;;;;;;24.97;42.32;98402.29;104841;1272;74329;-23
2022/06/20 06:57:47;;;;;;;2.30;1.80;;;;;;;25.13;42.66;98403.70;104627;1271;61908;-24
2022/06/20 07:00:27;;;;;;;4.30;1.90;;;;;;;25.19;42.00;98395.34;105069;1272;63375;-23
2022/06/20 07:03:23;;;;;;;2.70;1.60;;;;;;;25.16;41.25;98387.77;104796;1273;75579;-23
2022/06/20 07:05:54;;;;;;;5.40;2.60;;;;;;;25.25;40.24;98384.80;104879;1271;76792;-23
2022/06/20 07:08:48;;;;;;;2.30;1.30;;;;;;;25.44;41.59;98388.64;104648;1271;73084;-23
2022/06/20 07:11:21;;;;;;;2.70;1.60;;;;;;;25.57;40.68;98388.77;104855;1271;62602;-23
2022/06/20 07:13:50;;;;;;;6.40;1.60;;;;;;;25.43;40.24;98390.17;104785;1271;61658;-23
2022/06/20 07:16:26;;;;;;;2.10;1.50;;;;;;;25.54;40.93;98396.02;104885;1272;76558;-23
2022/06/20 07:18:55;;;;;;;3.10;1.90;;;;;;;25.71;40.48;98394.17;105085;1272;77067;-23
2022/06/20 07:21:23;;;;;;;4.40;1.60;;;;;;;25.87;40.08;98401.60;104764;1271;75456;-24
2022/06/20 07:24:02;;;;;;;3.40;1.30;;;;;;;26.01;39.60;98392.48;105141;1272;63135;-24
2022/06/20 07:26:34;;;;;;;2.50;1.10;;;;;;;26.24;39.00;98392.44;104703;1273;63367;-23
2022/06/20 07:29:05;;;;;;;3.20;1.80;;;;;;;26.16;38.47;98396.55;104623;1271;76415;-23
2022/06/20 07:31:39;;;;;;;2.60;1.30;;;;;;;26.22;39.38;98401.21;104630;1271;76975;-24
2022/06/20 07:34:25;;;;;;;4.50;1.50;;;;;;;26.53;38.59;98398.46;105013;1274;75340;-25
2022/06/20 07:36:58;;;;;;;3.10;1.20;;;;;;;26.76;38.02;98392.31;104987;1272;61435;-25
2022/06/20 07:39:31;;;;;;;3.00;1.30;;;;;;;26.71;37.47;98397.31;104979;1271;63040;-25
2022/06/20 07:42:07;;;;;;;;;;;;;;;26.62;37.62;98403.50;104931;1271;76936;-24
2022/06/20 07:45:24;;;;;;;2.50;1.30;;;;;;;26.77;37.21;98408.55;101911;1307;601702;-23
2022/06/20 07:48:14;;;;;;;6.20;1.10;;;;;;;26.63;37.71;98399.17;104265;1284;63325;-23
2022/06/20 07:50:55;;;;;;;3.20;1.30;;;;;;;26.74;38.05;98396.02;103946;1285;62797;-24
2022/06/20 07:54:04;;;;;;;4.20;1.40;;;;;;;26.83;37.60;98393.38;103860;1287;73976;-23
2022/06/20 07:56:45;;;;;;;4.30;1.30;;;;;;;26.99;37.98;98394.27;104229;1284;75893;-23
2022/06/20 07:59:26;;;;;;;2.80;1.10;;;;;;;27.06;38.45;98394.08;103849;1281;346748;-23
2022/06/20 08:02:16;;;;;;;3.20;1.30;;;;;;;27.30;37.89;98391.09;104239;1281;62786;-23
2022/06/20 08:04:44;;;;;;;2.00;1.60;;;;;;;27.24;38.62;98385.41;104345;1281;62997;-23
2022/06/20 08:07:20;;;;;;;3.10;1.30;;;;;;;27.27;38.59;98385.17;104183;1281;74905;-23
2022/06/20 08:10:00;;;;;;;2.50;1.30;;;;;;;27.44;37.80;98380.65;104221;1281;77021;-23
2022/06/20 08:12:53;;;;;;;2.00;1.00;;;;;;;27.51;37.68;98384.27;104006;1281;75641;-23
2022/06/20 08:15:23;;;;;;;7.40;1.30;;;;;;;27.53;37.79;98380.48;103997;1281;63167;-23
2022/06/20 08:17:50;;;;;;;5.10;1.30;;;;;;;27.62;37.33;98375.34;104865;1274;61666;-23
2022/06/20 08:20:18;;;;;;;2.60;1.30;;;;;;;27.62;37.00;98374.33;105143;1271;74709;-23
2022/06/20 08:22:50;;;;;;;4.10;1.10;;;;;;;27.73;36.84;98376.82;105028;1272;76782;-23
2022/06/20 08:25:23;;;;;;;8.70;1.40;;;;;;;27.90;37.67;98378.23;104621;1271;74447;-23
2022/06/20 08:27:57;;;;;;;5.00;1.30;;;;;;;28.22;37.21;98377.64;104441;1271;62774;-23
2022/06/20 08:30:31;;;;;;;2.60;1.30;;;;;;;28.34;36.91;98375.73;104390;1271;61708;-23
2022/06/20 08:33:07;;;;;;;2.80;1.20;;;;;;;28.45;35.77;98372.10;104464;1272;75703;-23
2022/06/20 08:35:40;;;;;;;4.10;1.30;;;;;;;28.53;35.50;98379.44;104645;1271;75791;-23
2022/06/20 08:38:12;;;;;;;2.70;1.20;;;;;;;28.72;35.02;98373.10;104614;1271;75430;-23
2022/06/20 08:41:02;;;;;;;3.60;1.50;;;;;;;28.52;35.16;98371.77;104598;1271;63116;-23
2022/06/20 08:43:38;;;;;;;4.50;1.40;;;;;;;28.58;35.67;98368.91;104454;1271;61916;-23
2022/06/20 08:46:24;;;;;;;2.20;1.30;;;;;;;28.80;35.65;98363.67;104639;1271;74859;-23
2022/06/20 08:49:10;;;;;;;3.00;1.30;;;;;;;28.91;35.51;98368.60;104615;1274;75906;-23
2022/06/20 08:52:08;;;;;;;7.70;1.40;;;;;;;29.20;35.15;98376.40;104694;1271;73226;-23
2022/06/20 08:54:56;;;;;;;5.20;1.40;;;;;;;29.60;35.45;98383.36;104622;1271;61870;-24
2022/06/20 08:57:36;;;;;;;4.50;2.60;;;;;;;29.81;34.22;98375.27;104575;1271;61796;-24
2022/06/20 09:00:24;;;;;;;1.90;1.10;;;;;;;29.88;32.76;98376.35;104648;1271;76048;-23
2022/06/20 09:03:29;;;;;;;5.90;1.20;;;;;;;29.72;31.84;98373.92;104635;1273;76146;-23
2022/06/20 09:06:04;;;;;;;4.60;1.50;;;;;;;29.79;32.34;98377.27;104535;1271;75177;-24
2022/06/20 09:09:09;;;;;;;1.50;1.20;;;;;;;30.09;32.61;98369.76;104654;1274;63162;-24
2022/06/20 09:11:39;;;;;;;4.30;1.00;;;;;;;30.12;32.60;98356.13;104831;1271;62576;-24
2022/06/20 09:14:29;;;;;;;2.80;1.10;;;;;;;30.13;32.31;98354.13;104598;1271;73812;-24
2022/06/20 09:17:01;;;;;;;3.30;1.20;;;;;;;30.18;32.08;98349.55;104759;1271;75992;-24
2022/06/20 09:19:57;;;;;;;1.70;1.20;;;;;;;30.16;33.26;98345.54;104677;1271;75389;-24
2022/06/20 09:22:37;;;;;;;4.90;1.60;;;;;;;30.54;31.32;98344.64;104585;1274;63072;-24
2022/06/20 09:25:18;;;;;;;3.60;1.00;;;;;;;30.65;31.38;98339.02;104593;1271;61202;-24
2022/06/20 09:27:55;;;;;;;5.80;3.50;;;;;;;30.82;31.68;98333.16;104712;1271;74746;-24
2022/06/20 09:30:33;;;;;;;3.10;1.20;;;;;;;30.36;31.46;98331.91;104649;1271;76123;-24
2022/06/20 09:33:18;;;;;;;4.10;1.40;;;;;;;30.02;31.09;98328.48;104538;1274;75425;-24
2022/06/20 09:35:52;;;;;;;2.50;1.30;;;;;;;29.96;32.00;98323.17;104600;1271;62856;-24
2022/06/20 09:39:00;;;;;;;5.00;4.60;;;;;;;30.32;31.99;98316.35;104670;1274;61761;-24
2022/06/20 09:41:36;;;;;;;3.00;1.40;;;;;;;30.37;31.11;98311.33;104841;1271;76216;-25
2022/06/20 09:44:19;;;;;;;5.20;1.80;;;;;;;29.85;31.81;98315.98;104724;1274;77099;-24
2022/06/20 09:47:04;;;;;;;3.30;1.70;;;;;;;29.80;32.12;98306.38;104595;1274;75395;-24
2022/06/20 09:49:40;;;;;;;7.90;1.40;;;;;;;30.19;32.33;98295.92;104623;1274;62748;-24
2022/06/20 09:52:29;;;;;;;2.50;1.20;;;;;;;30.41;31.53;98293.02;104675;1274;62915;-24
2022/06/20 09:55:08;;;;;;;5.00;1.70;;;;;;;30.76;32.06;98295.56;104821;1274;74776;-25
2022/06/20 09:57:41;;;;;;;5.50;1.30;;;;;;;30.84;30.43;98293.16;104517;1274;77068;-24
2022/06/20 10:00:14;;;;;;;5.00;1.10;;;;;;;30.91;29.98;98292.91;104636;1274;74447;-24
2022/06/20 10:02:59;;;;;;;5.20;1.70;;;;;;;30.63;30.12;98289.39;104625;1274;62229;-24
2022/06/20 10:05:42;;;;;;;6.50;1.10;;;;;;;30.44;30.54;98286.05;104641;1274;62086;-23
2022/06/20 10:08:31;;;;;;;3.00;1.30;;;;;;;30.78;30.49;98285.89;104573;1274;73433;-24
2022/06/20 10:11:24;;;;;;;3.20;1.50;;;;;;;30.87;31.13;98293.52;104625;1274;76043;-24
2022/06/20 10:14:12;;;;;;;7.20;1.10;;;;;;;31.23;30.15;98292.23;104619;1274;74535;-23
2022/06/20 10:16:58;;;;;;;5.30;1.60;;;;;;;31.41;29.85;98282.27;104558;1274;62951;-23
2022/06/20 10:19:34;;;;;;;5.50;1.20;;;;;;;31.29;30.64;98281.93;104748;1274;62999;-23
2022/06/20 10:22:32;;;;;;;3.00;1.40;;;;;;;31.36;30.45;98278.43;104660;1274;74599;-23
2022/06/20 10:25:16;;;;;;;3.40;1.30;;;;;;;31.07;30.47;98284.16;104426;1274;77034;-23
2022/06/20 10:28:22;;;;;;;3.60;1.40;;;;;;;31.02;30.36;98282.23;104628;1274;75037;-23
2022/06/20 10:30:58;;;;;;;1.70;1.40;;;;;;;31.21;30.91;98275.05;104795;1274;61427;-23
2022/06/20 10:34:02;;;;;;;2.40;1.20;;;;;;;30.88;30.79;98275.46;104607;1274;61760;-23
2022/06/20 10:36:40;;;;;;;3.00;1.00;;;;;;;31.30;31.08;98270.52;104617;1274;75767;-23
2022/06/20 10:39:24;;;;;;;3.40;1.20;;;;;;;31.48;31.31;98266.61;104589;1274;74765;-23
2022/06/20 10:42:04;;;;;;;6.90;2.20;;;;;;;31.76;29.98;98260.23;104564;1274;75572;-23
2022/06/20 10:44:57;;;;;;;6.20;1.40;;;;;;;31.44;29.19;98264.27;104563;1274;61753;-25
2022/06/20 10:47:37;;;;;;;2.50;1.00;;;;;;;31.50;29.98;98268.30;104565;1274;61997;-23
2022/06/20 10:50:08;;;;;;;2.20;1.20;;;;;;;31.43;28.98;98274.93;104563;1274;75911;-23
2022/06/20 10:53:13;;;;;;;2.00;1.30;;;;;;;30.95;29.95;98280.36;104639;1274;76830;-23
2022/06/20 10:55:56;;;;;;;4.40;1.40;;;;;;;31.45;30.57;98272.17;104662;1274;75111;-23
2022/06/20 10:58:45;;;;;;;4.80;1.30;;;;;;;31.61;30.22;98265.30;104598;1274;62855;-23
2022/06/20 11:01:24;;;;;;;4.80;1.40;;;;;;;31.38;29.82;98260.83;104649;1274;62128;-24
2022/06/20 11:04:00;;;;;;;2.00;1.30;;;;;;;31.33;29.94;98257.76;104596;1274;75592;-24
2022/06/20 11:07:03;;;;;;;1.70;1.20;;;;;;;31.21;30.32;98256.06;104689;1274;77260;-24
2022/06/20 11:09:58;;;;;;;7.00;1.20;;;;;;;31.60;30.31;98254.23;104606;1277;75185;-24
2022/06/20 11:12:59;;;;;;;7.20;1.20;;;;;;;31.63;29.63;98255.84;104582;1277;61972;-24
2022/06/20 11:15:30;;;;;;;5.40;1.30;;;;;;;31.99;29.61;98250.21;104552;1277;61885;-24
2022/06/20 11:18:20;;;;;;;3.90;1.30;;;;;;;31.79;29.84;98246.66;104493;1278;75808;-24
2022/06/20 11:21:33;;;;;;;3.30;1.10;;;;;;;31.69;29.84;98247.02;104504;1277;76111;-24
2022/06/20 11:24:04;;;;;;;37.50;2.70;;;;;;;31.75;29.62;98237.44;104046;1280;75233;-24
2022/06/20 11:26:40;;;;;;;3.10;1.30;;;;;;;31.73;29.83;98238.02;104241;1277;61957;-24
2022/06/20 11:29:20;;;;;;;4.40;1.20;;;;;;;31.56;29.81;98237.98;104151;1278;62912;-24
2022/06/20 11:31:47;;;;;;;3.20;1.30;;;;;;;31.09;29.10;98240.39;104102;1278;75819;-24
2022/06/20 11:34:26;;;;;;;4.00;1.20;;;;;;;31.29;28.95;98241.00;104264;1277;77546;-24
2022/06/20 11:37:21;;;;;;;1.70;1.20;;;;;;;31.26;28.71;98237.22;104221;1277;74261;-24
2022/06/20 11:40:00;;;;;;;2.40;1.30;;;;;;;31.44;29.44;98232.38;104194;1277;63384;-24
2022/06/20 11:42:49;;;;;;;5.70;1.00;;;;;;;31.60;28.92;98232.98;104475;1280;62804;-24
2022/06/20 11:45:36;;;;;;;4.50;1.30;;;;;;;31.70;29.14;98229.14;104641;1274;75711;-24
2022/06/20 11:48:13;;;;;;;2.70;1.10;;;;;;;31.62;29.56;98223.45;104632;1274;76185;-24
2022/06/20 11:50:46;;;;;;;2.50;1.30;;;;;;;31.64;29.06;98224.40;104578;1274;73595;-24
2022/06/20 11:53:28;;;;;;;2.10;1.30;;;;;;;31.83;29.29;98227.02;104768;1274;62198;-24
2022/06/20 11:56:03;;;;;;;4.90;1.50;;;;;;;31.77;30.25;98222.02;104398;1274;62789;-24
2022/06/20 11:59:22;;;;;;;6.50;1.50;;;;;;;31.29;29.28;98221.06;104400;1274;74964;-24
2022/06/20 12:02:08;;;;;;;3.10;1.10;;;;;;;31.41;29.36;98205.30;104409;1274;75799;-24
2022/06/20 12:04:42;;;;;;;2.60;1.40;;;;;;;31.50;29.71;98197.15;104537;1274;75464;-24
2022/06/20 12:07:36;;;;;;;2.90;1.10;;;;;;;31.71;29.55;98196.42;104580;1274;61829;-24
2022/06/20 12:10:06;;;;;;;4.70;1.40;;;;;;;31.64;28.97;98200.45;104556;1274;63099;-24
2022/06/20 12:12:48;;;;;;;3.90;1.20;;;;;;;31.26;28.79;98201.84;104733;1274;75851;-24
2022/06/20 12:15:32;;;;;;;5.20;1.30;;;;;;;31.19;28.77;98189.52;104728;1274;76879;-24
2022/06/20 12:18:27;;;;;;;7.10;1.40;;;;;;;31.59;30.24;98181.51;104566;1274;74884;-24